Time;durP1;ratioP1;P1;durP2;ratioP2;P2;SDS_P1;SDS_P2;PMS_P1;PMS_P2;Temp;Humidity;BMP_temperature;BMP_pressure;BME280_temperature;BME280_humidity;BME280_pressure;Samples;Min_cycle;Max_cycle;Signal;HPM_P1;HPM_P2
2022/03/22 00:02:18;;;;;;;3.38;1.88;;;9.00;70.30;;;;;;5096075;28;20036;-70
2022/03/22 00:04:44;;;;;;;5.40;2.50;;;9.00;70.30;;;;;;5133219;28;20108;-70
2022/03/22 00:07:09;;;;;;;4.18;2.22;;;9.00;70.30;;;;;;5098251;28;20050;-70
2022/03/22 00:09:36;;;;;;;5.28;2.30;;;9.00;70.30;;;;;;5133543;28;20049;-70
2022/03/22 00:12:02;;;;;;;4.10;2.08;;;9.00;70.30;;;;;;5133232;28;20101;-70
2022/03/22 00:14:28;;;;;;;3.97;2.22;;;9.10;70.40;;;;;;5097806;28;20126;-70
2022/03/22 00:16:54;;;;;;;3.97;2.28;;;9.10;70.40;;;;;;5097742;28;20134;-71
2022/03/22 00:19:20;;;;;;;4.95;2.28;;;9.00;70.30;;;;;;5097991;28;20100;-71
2022/03/22 00:21:46;;;;;;;4.07;1.90;;;9.00;70.40;;;;;;5132954;28;20050;-69
2022/03/22 00:24:12;;;;;;;4.68;2.50;;;9.00;70.40;;;;;;5097761;28;20035;-69
2022/03/22 00:26:38;;;;;;;4.13;2.20;;;9.00;70.50;;;;;;5096665;28;20035;-71
2022/03/22 00:29:04;;;;;;;2.88;1.63;;;9.00;70.50;;;;;;5115098;28;20436;-71
2022/03/22 00:31:30;;;;;;;3.50;2.15;;;9.00;70.50;;;;;;5114121;28;20547;-70
2022/03/22 00:33:57;;;;;;;3.22;1.83;;;9.00;70.60;;;;;;5114649;28;20043;-70
2022/03/22 00:36:23;;;;;;;3.35;1.92;;;9.00;70.60;;;;;;5096055;28;20051;-70
2022/03/22 00:38:49;;;;;;;3.72;2.10;;;8.90;70.60;;;;;;5115114;28;20533;-70
2022/03/22 00:41:16;;;;;;;5.22;2.38;;;8.90;70.70;;;;;;5114514;28;20544;-70
2022/03/22 00:43:44;;;;;;;5.53;2.33;;;8.90;70.80;;;;;;5132858;28;20152;-69
2022/03/22 00:46:10;;;;;;;3.97;2.10;;;8.90;70.90;;;;;;5133036;28;20476;-69
2022/03/22 00:48:35;;;;;;;4.28;2.15;;;8.80;70.80;;;;;;5132934;28;20047;-69
2022/03/22 00:51:01;;;;;;;4.35;2.20;;;8.80;70.90;;;;;;5114820;28;20050;-70
2022/03/22 00:53:27;;;;;;;3.42;1.90;;;8.80;71.00;;;;;;5114377;28;20047;-70
2022/03/22 00:55:53;;;;;;;3.42;1.80;;;8.90;71.10;;;;;;5114600;28;20403;-72
2022/03/22 00:58:19;;;;;;;4.75;2.00;;;8.70;71.10;;;;;;5113606;28;20051;-70
2022/03/22 01:00:46;;;;;;;3.72;1.90;;;8.70;71.20;;;;;;5113508;28;20502;-69
2022/03/22 01:03:12;;;;;;;3.22;1.95;;;8.70;71.20;;;;;;5096054;28;20038;-69
2022/03/22 01:05:38;;;;;;;3.72;2.08;;;8.70;71.30;;;;;;5080077;28;20456;-70
2022/03/22 01:08:08;;;;;;;4.05;2.20;;;8.70;71.20;;;;;;5114141;28;20032;-69
2022/03/22 01:10:36;;;;;;;3.47;2.00;;;8.70;71.20;;;;;;5114128;28;20049;-69
2022/03/22 01:13:03;;;;;;;4.63;2.30;;;8.60;71.30;;;;;;5132492;28;20043;-69
2022/03/22 01:15:33;;;;;;;3.65;2.15;;;8.60;71.30;;;;;;5132199;28;20037;-70
2022/03/22 01:18:03;;;;;;;3.15;1.67;;;8.60;71.50;;;;;;5132227;28;20122;-69
2022/03/22 01:20:31;;;;;;;3.43;2.10;;;8.50;71.50;;;;;;5132462;28;20095;-70
2022/03/22 01:22:57;;;;;;;3.53;1.98;;;8.50;71.50;;;;;;5132275;28;20051;-68
2022/03/22 01:25:27;;;;;;;3.70;2.00;;;8.50;71.60;;;;;;5114092;28;20054;-69
2022/03/22 01:27:54;;;;;;;3.22;1.90;;;8.50;72.30;;;;;;5132293;28;20035;-69
2022/03/22 01:30:22;;;;;;;3.72;2.25;;;8.50;71.70;;;;;;5114413;28;20058;-69
2022/03/22 01:32:50;;;;;;;4.97;2.60;;;8.50;71.80;;;;;;5097113;28;20043;-69
2022/03/22 01:35:17;;;;;;;4.03;2.30;;;8.50;71.80;;;;;;5132330;28;20088;-69
2022/03/22 01:37:44;;;;;;;3.10;1.90;;;8.40;71.70;;;;;;5132699;27;20042;-69
2022/03/22 01:40:11;;;;;;;3.10;1.80;;;8.50;71.80;;;;;;5136197;28;20043;-69
2022/03/22 01:42:38;;;;;;;3.25;1.85;;;8.50;71.80;;;;;;5135724;28;20097;-69
2022/03/22 01:45:06;;;;;;;3.90;2.08;;;8.40;71.70;;;;;;5135924;28;20359;-69
2022/03/22 01:47:32;;;;;;;3.20;1.90;;;8.40;71.70;;;;;;5135957;28;20047;-69
2022/03/22 01:49:58;;;;;;;3.53;2.10;;;8.40;71.80;;;;;;5135223;28;20047;-69
2022/03/22 01:52:25;;;;;;;3.22;1.80;;;8.40;71.80;;;;;;5135507;28;20096;-69
2022/03/22 01:54:54;;;;;;;3.65;2.00;;;8.40;71.90;;;;;;5135638;28;20069;-68
2022/03/22 01:57:21;;;;;;;3.00;1.60;;;8.30;71.90;;;;;;5135390;28;20486;-69
2022/03/22 01:59:48;;;;;;;2.80;1.58;;;8.30;71.90;;;;;;5117477;28;20039;-69
2022/03/22 02:07:39;;;;;;;2.38;1.48;;;8.20;72.20;;;;;;5135298;28;20051;-70
2022/03/22 02:10:06;;;;;;;3.60;1.75;;;8.20;72.20;;;;;;5135157;28;20548;-70
2022/03/22 02:12:31;;;;;;;3.70;1.83;;;8.10;72.20;;;;;;5135122;28;20047;-70
2022/03/22 02:14:57;;;;;;;2.53;1.58;;;8.10;72.40;;;;;;5135329;28;20043;-70
2022/03/22 02:17:23;;;;;;;3.78;1.90;;;8.00;72.40;;;;;;5134951;28;20040;-70
2022/03/22 02:19:49;;;;;;;3.28;1.83;;;8.00;72.50;;;;;;5135297;28;20038;-70
2022/03/22 02:22:17;;;;;;;3.53;1.67;;;7.90;72.60;;;;;;5117004;28;20037;-70
2022/03/22 02:24:43;;;;;;;3.42;1.88;;;7.90;73.30;;;;;;5135203;28;20050;-70
2022/03/22 02:27:09;;;;;;;2.92;1.42;;;7.90;72.70;;;;;;5134759;28;20035;-70
2022/03/22 02:29:36;;;;;;;1.92;1.30;;;7.80;72.70;;;;;;5134838;28;20049;-70
2022/03/22 02:32:04;;;;;;;3.90;2.17;;;7.80;72.80;;;;;;5134725;28;20043;-69
2022/03/22 02:34:31;;;;;;;3.25;1.60;;;7.80;72.80;;;;;;5135150;28;20043;-70
2022/03/22 02:36:58;;;;;;;1.88;1.10;;;7.80;72.80;;;;;;5134876;28;20043;-70
2022/03/22 02:39:24;;;;;;;2.00;1.30;;;7.80;72.80;;;;;;5135347;28;20114;-69
2022/03/22 02:41:51;;;;;;;2.53;1.40;;;7.80;73.50;;;;;;5114416;28;20046;-70
2022/03/22 02:44:19;;;;;;;2.78;1.50;;;7.70;72.90;;;;;;5134388;28;20038;-70
2022/03/22 02:46:46;;;;;;;2.47;1.42;;;7.70;72.90;;;;;;5134815;28;20070;-70
2022/03/22 02:49:13;;;;;;;2.72;1.50;;;7.80;72.90;;;;;;5133880;27;20053;-69
2022/03/22 02:51:39;;;;;;;2.17;1.23;;;7.70;72.90;;;;;;5134219;28;20035;-69
2022/03/22 02:54:05;;;;;;;3.22;1.80;;;7.70;73.00;;;;;;5114196;28;20119;-70
2022/03/22 02:56:31;;;;;;;2.63;1.35;;;7.70;73.00;;;;;;5134394;28;20126;-70
2022/03/22 02:58:57;;;;;;;2.95;1.48;;;7.60;73.00;;;;;;5134456;28;20397;-70
2022/03/22 03:01:23;;;;;;;2.28;1.33;;;7.60;73.10;;;;;;5134466;28;20035;-69
2022/03/22 03:03:49;;;;;;;2.40;1.33;;;7.60;73.10;;;;;;5134990;28;20027;-70
2022/03/22 03:06:15;;;;;;;3.13;1.50;;;7.60;73.10;;;;;;5134559;28;20138;-71
2022/03/22 03:08:42;;;;;;;3.35;1.67;;;7.40;73.00;;;;;;5134437;28;20111;-69
2022/03/22 03:11:08;;;;;;;2.88;1.63;;;7.50;73.20;;;;;;5134293;28;20051;-68
2022/03/22 03:16:12;;;;;;;2.20;1.30;;;7.50;73.30;;;;;;5134178;28;20131;-68
2022/03/22 03:18:37;;;;;;;2.83;1.60;;;7.40;73.40;;;;;;5134767;28;20092;-68
2022/03/22 03:21:03;;;;;;;2.75;1.58;;;7.30;73.40;;;;;;5134314;28;20117;-68
2022/03/22 03:23:29;;;;;;;2.40;1.40;;;7.40;73.40;;;;;;5114862;28;20038;-68
2022/03/22 03:25:54;;;;;;;3.42;1.60;;;7.30;73.50;;;;;;5116182;28;20046;-68
2022/03/22 03:28:20;;;;;;;3.05;1.48;;;7.30;73.60;;;;;;5134039;28;20390;-68
2022/03/22 03:30:46;;;;;;;2.47;1.38;;;7.20;73.60;;;;;;5134523;28;20533;-68
2022/03/22 03:33:11;;;;;;;2.25;1.20;;;7.20;73.80;;;;;;5134263;28;20512;-68
2022/03/22 03:35:37;;;;;;;2.92;1.35;;;7.10;73.90;;;;;;5133984;28;20039;-68
2022/03/22 03:38:03;;;;;;;2.53;1.50;;;7.10;73.90;;;;;;5133635;28;20046;-68
2022/03/22 03:41:53;;;;;;;2.97;1.52;;;7.10;73.90;;;;;;5133458;28;20027;-68
2022/03/22 03:43:14;;;;;;;2.60;1.48;;;7.10;73.90;;;;;;5133250;28;20485;-68
2022/03/22 03:48:17;;;;;;;2.50;1.45;;;7.00;73.90;;;;;;5115206;28;20047;-68
2022/03/22 03:50:43;;;;;;;2.35;1.27;;;7.00;73.90;;;;;;5133671;28;20039;-68
2022/03/22 03:53:08;;;;;;;1.55;0.98;;;7.00;74.00;;;;;;5133662;28;20047;-68
2022/03/22 03:55:34;;;;;;;2.33;1.63;;;6.90;74.00;;;;;;5133756;28;20042;-68
2022/03/22 03:58:00;;;;;;;2.42;1.30;;;6.90;74.00;;;;;;5133839;28;20047;-68
2022/03/22 04:00:26;;;;;;;3.00;1.50;;;7.00;74.00;;;;;;5133054;27;20035;-68
2022/03/22 04:02:53;;;;;;;2.67;1.55;;;6.90;74.00;;;;;;5133542;28;20035;-68
2022/03/22 04:05:19;;;;;;;2.83;1.58;;;6.90;74.10;;;;;;5133438;28;20065;-68
2022/03/22 04:07:45;;;;;;;2.22;1.33;;;6.80;74.10;;;;;;5133528;28;20478;-68
2022/03/22 04:10:11;;;;;;;2.13;1.40;;;6.80;74.20;;;;;;5133672;28;20427;-68
2022/03/22 04:12:41;;;;;;;2.80;1.50;;;6.80;74.20;;;;;;5133103;28;20438;-68
2022/03/22 04:15:12;;;;;;;2.72;1.40;;;6.80;74.30;;;;;;5114952;28;20039;-68
2022/03/22 04:17:38;;;;;;;2.92;1.38;;;6.80;74.30;;;;;;5132921;28;20046;-68
2022/03/22 04:20:04;;;;;;;2.42;1.27;;;6.70;74.30;;;;;;5133200;28;20122;-68
2022/03/22 04:22:30;;;;;;;2.53;1.50;;;6.70;74.30;;;;;;5133262;28;20028;-68
2022/03/22 04:24:56;;;;;;;2.15;1.35;;;6.70;74.30;;;;;;5133703;28;20034;-68
2022/03/22 04:32:41;;;;;;;2.80;1.58;;;6.70;74.40;;;;;;5132851;28;20502;-69
2022/03/22 04:35:08;;;;;;;2.72;1.45;;;6.70;74.30;;;;;;5132767;28;20044;-69
2022/03/22 04:37:33;;;;;;;2.88;1.42;;;6.70;74.40;;;;;;5133049;28;20440;-68
2022/03/22 04:40:00;;;;;;;2.10;1.23;;;6.60;74.40;;;;;;5133106;28;20031;-69
2022/03/22 04:42:26;;;;;;;2.47;1.40;;;6.70;74.50;;;;;;5132767;28;20081;-69
2022/03/22 04:44:52;;;;;;;1.75;1.23;;;6.60;74.40;;;;;;5097417;28;20127;-69
2022/03/22 04:47:17;;;;;;;2.45;1.38;;;6.60;74.50;;;;;;5114556;28;20057;-69
2022/03/22 04:49:43;;;;;;;3.17;1.60;;;6.60;74.50;;;;;;5133225;28;20045;-69
2022/03/22 04:57:32;;;;;;;2.08;1.27;;;6.60;74.50;;;;;;5132680;28;20046;-69
2022/03/22 04:59:58;;;;;;;2.53;1.30;;;6.60;74.40;;;;;;5133158;28;20394;-69
2022/03/22 05:02:23;;;;;;;2.13;1.30;;;6.60;74.40;;;;;;5132806;28;20107;-68
2022/03/22 05:04:49;;;;;;;2.20;1.38;;;6.60;74.40;;;;;;5132598;28;20127;-69
2022/03/22 05:07:15;;;;;;;3.53;1.60;;;6.60;74.40;;;;;;5132981;28;20039;-69
2022/03/22 05:09:41;;;;;;;2.28;1.40;;;6.60;74.40;;;;;;5114335;28;20047;-69
2022/03/22 05:12:13;;;;;;;2.38;1.45;;;6.70;74.50;;;;;;5132891;27;20424;-69
2022/03/22 05:14:40;;;;;;;2.97;1.58;;;6.70;74.30;;;;;;5135890;28;20070;-69
2022/03/22 05:17:06;;;;;;;2.05;1.30;;;6.80;74.90;;;;;;5136094;28;20032;-69
2022/03/22 05:19:31;;;;;;;2.65;1.35;;;6.80;74.10;;;;;;5136205;28;20126;-69
2022/03/22 05:21:58;;;;;;;2.50;1.50;;;6.80;74.10;;;;;;5136650;28;20458;-69
2022/03/22 05:24:23;;;;;;;2.78;1.58;;;6.90;74.10;;;;;;5136579;28;20046;-68
2022/03/22 05:26:50;;;;;;;3.22;1.60;;;6.90;74.00;;;;;;5136474;28;20027;-68
2022/03/22 05:29:17;;;;;;;3.25;1.70;;;6.90;74.00;;;;;;5117902;28;20051;-69
2022/03/22 05:31:42;;;;;;;2.22;1.35;;;6.90;73.90;;;;;;5136435;28;20038;-69
2022/03/22 05:34:08;;;;;;;4.18;1.88;;;7.00;73.90;;;;;;5117883;28;20047;-69
2022/03/22 05:36:34;;;;;;;2.28;1.38;;;7.10;74.00;;;;;;5136065;28;20039;-69
2022/03/22 05:39:00;;;;;;;3.10;1.67;;;7.10;73.90;;;;;;5136616;28;20035;-69
2022/03/22 05:41:26;;;;;;;2.80;1.60;;;7.10;73.90;;;;;;5116357;28;20051;-69
2022/03/22 05:43:52;;;;;;;3.30;1.90;;;7.10;73.90;;;;;;5117826;28;20039;-69
2022/03/22 05:46:18;;;;;;;3.30;1.73;;;7.10;73.80;;;;;;5135963;28;20047;-68
2022/03/22 05:48:48;;;;;;;3.17;1.67;;;7.10;73.80;;;;;;5136023;28;20049;-68
2022/03/22 05:51:16;;;;;;;4.78;2.20;;;7.20;73.70;;;;;;5135942;28;20035;-68
2022/03/22 05:53:44;;;;;;;2.80;1.58;;;7.30;73.70;;;;;;5136048;28;20035;-69
2022/03/22 05:56:10;;;;;;;2.40;1.50;;;7.30;73.60;;;;;;5135882;28;20054;-69
2022/03/22 05:58:36;;;;;;;2.85;1.63;;;7.30;73.60;;;;;;5135716;28;20031;-69
2022/03/22 06:01:02;;;;;;;2.25;1.48;;;7.40;73.50;;;;;;5136266;28;20035;-69
2022/03/22 06:03:28;;;;;;;2.85;1.52;;;7.40;73.40;;;;;;5135606;28;20039;-69
2022/03/22 06:05:54;;;;;;;3.20;1.52;;;7.50;73.40;;;;;;5098419;28;20100;-69
2022/03/22 06:08:20;;;;;;;2.70;1.50;;;7.50;73.30;;;;;;5136187;28;20466;-69
2022/03/22 06:10:46;;;;;;;3.13;1.70;;;7.50;73.30;;;;;;5135580;28;20122;-69
2022/03/22 06:13:12;;;;;;;3.58;1.90;;;7.60;73.30;;;;;;5135599;28;20038;-68
2022/03/22 06:15:38;;;;;;;3.40;1.70;;;7.70;73.20;;;;;;5135351;28;20043;-68
2022/03/22 06:18:06;;;;;;;3.25;1.90;;;7.70;73.10;;;;;;5135933;28;20047;-68
2022/03/22 06:20:34;;;;;;;2.90;1.75;;;7.80;73.00;;;;;;5100149;28;20049;-68
2022/03/22 06:23:02;;;;;;;4.72;1.90;;;7.90;72.90;;;;;;5100174;28;20111;-68
2022/03/22 06:25:29;;;;;;;3.65;1.85;;;7.90;72.90;;;;;;5134964;27;20043;-69
2022/03/22 06:27:56;;;;;;;3.83;2.10;;;8.00;72.80;;;;;;5135957;28;20039;-68
2022/03/22 06:30:23;;;;;;;3.50;1.90;;;8.10;73.30;;;;;;5116295;28;20058;-69
2022/03/22 06:32:51;;;;;;;3.80;1.92;;;8.20;72.60;;;;;;5115901;28;20044;-68
2022/03/22 06:35:19;;;;;;;3.40;1.80;;;8.40;72.50;;;;;;5135212;28;20398;-68
2022/03/22 06:37:46;;;;;;;3.42;1.80;;;8.30;72.30;;;;;;5135127;28;20058;-68
2022/03/22 06:40:14;;;;;;;2.92;1.80;;;8.40;72.20;;;;;;5114563;28;20092;-71
2022/03/22 06:42:40;;;;;;;3.50;1.80;;;8.50;72.10;;;;;;5135187;28;20039;-69
2022/03/22 06:45:06;;;;;;;1.55;1.20;;;8.50;71.90;;;;;;5116034;28;20039;-68
2022/03/22 06:47:33;;;;;;;2.67;1.70;;;8.60;71.80;;;;;;5116746;28;20046;-68
2022/03/22 06:49:59;;;;;;;3.40;1.73;;;8.70;71.80;;;;;;5134909;28;20047;-69
2022/03/22 06:52:26;;;;;;;3.10;1.73;;;8.80;71.60;;;;;;5135017;28;20050;-69
2022/03/22 06:54:51;;;;;;;3.38;1.65;;;8.90;71.50;;;;;;5134783;28;20107;-69
2022/03/22 06:57:17;;;;;;;2.63;1.48;;;9.00;71.50;;;;;;5134787;28;20040;-69
2022/03/22 06:59:43;;;;;;;5.00;2.28;;;9.00;71.30;;;;;;5135219;28;20066;-70
2022/03/22 07:02:09;;;;;;;3.30;1.85;;;9.10;71.20;;;;;;5134205;28;20042;-70
2022/03/22 07:04:35;;;;;;;4.25;2.22;;;9.20;71.10;;;;;;5116179;28;20058;-70
2022/03/22 07:07:02;;;;;;;3.55;1.80;;;9.30;71.00;;;;;;5134597;28;20061;-70
2022/03/22 07:09:27;;;;;;;4.25;2.38;;;9.50;70.90;;;;;;5135103;28;20039;-70
2022/03/22 07:11:55;;;;;;;4.03;2.30;;;9.50;70.70;;;;;;5134395;28;20065;-70
2022/03/22 07:14:23;;;;;;;4.57;2.17;;;9.60;70.60;;;;;;5116258;28;20058;-70
2022/03/22 07:16:49;;;;;;;3.28;1.60;;;9.70;70.50;;;;;;5134161;28;20102;-70
2022/03/22 07:19:17;;;;;;;4.88;2.22;;;9.70;70.30;;;;;;5134820;28;20030;-70
2022/03/22 07:21:44;;;;;;;4.60;1.92;;;9.80;70.20;;;;;;5134316;28;20046;-70
2022/03/22 07:24:13;;;;;;;3.20;1.70;;;9.90;70.00;;;;;;5133722;28;20039;-70
2022/03/22 07:26:40;;;;;;;3.15;1.77;;;10.00;70.00;;;;;;5133842;28;20039;-70
2022/03/22 07:29:07;;;;;;;3.60;2.00;;;10.10;69.90;;;;;;5134167;28;20061;-70
2022/03/22 07:31:38;;;;;;;3.20;1.70;;;10.20;69.80;;;;;;5134230;28;20088;-70
2022/03/22 07:34:06;;;;;;;3.47;2.00;;;10.30;69.70;;;;;;5116371;28;20043;-70
2022/03/22 07:36:32;;;;;;;2.97;1.80;;;10.30;69.50;;;;;;5134026;27;20072;-70
2022/03/22 07:39:00;;;;;;;3.58;1.90;;;10.40;69.40;;;;;;5134821;28;20197;-70
2022/03/22 07:41:26;;;;;;;3.63;1.95;;;10.50;69.20;;;;;;5134499;28;20046;-70
2022/03/22 07:43:54;;;;;;;2.30;1.60;;;10.60;69.10;;;;;;5134776;28;20039;-70
2022/03/22 07:46:23;;;;;;;3.30;1.90;;;10.70;69.00;;;;;;5114070;28;20108;-69
2022/03/22 07:48:50;;;;;;;2.92;1.70;;;10.80;68.80;;;;;;5134103;28;20122;-69
2022/03/22 07:53:57;;;;;;;2.58;1.48;;;11.00;68.60;;;;;;5133834;28;20470;-70
2022/03/22 07:56:23;;;;;;;3.40;1.80;;;11.00;68.40;;;;;;5115622;28;20062;-68
2022/03/22 07:58:49;;;;;;;2.33;1.35;;;11.20;68.30;;;;;;5134023;28;20402;-69
2022/03/22 08:01:15;;;;;;;2.95;1.80;;;11.30;68.10;;;;;;5115473;28;20043;-69
2022/03/22 08:03:41;;;;;;;2.70;1.70;;;11.40;68.00;;;;;;5099101;28;20039;-69
2022/03/22 08:06:07;;;;;;;2.22;1.55;;;11.40;67.80;;;;;;5113328;28;20051;-69
2022/03/22 08:08:34;;;;;;;2.28;1.38;;;11.60;67.80;;;;;;5134085;28;20042;-69
2022/03/22 08:11:02;;;;;;;2.65;1.90;;;11.60;67.60;;;;;;5134021;28;20608;-69
2022/03/22 08:13:29;;;;;;;3.05;1.77;;;11.70;67.50;;;;;;5133662;28;20482;-70
2022/03/22 08:16:03;;;;;;;3.17;1.70;;;11.80;67.40;;;;;;5133416;28;20035;-69
2022/03/22 08:18:29;;;;;;;3.17;1.77;;;12.00;67.40;;;;;;5098158;28;20035;-70
2022/03/22 08:20:55;;;;;;;3.83;1.95;;;12.10;67.30;;;;;;5115136;28;20032;-70
2022/03/22 08:23:21;;;;;;;2.45;1.55;;;12.10;67.10;;;;;;5133624;28;20031;-70
2022/03/22 08:25:49;;;;;;;3.22;1.83;;;12.20;67.00;;;;;;5098124;28;20039;-70
2022/03/22 08:28:15;;;;;;;3.58;1.98;;;12.20;66.80;;;;;;5097025;28;20112;-70
2022/03/22 08:30:42;;;;;;;4.38;2.08;;;12.50;66.80;;;;;;5133646;28;20042;-70
2022/03/22 08:33:09;;;;;;;3.15;1.85;;;12.50;66.60;;;;;;5097650;28;20064;-72
2022/03/22 08:35:38;;;;;;;3.13;2.00;;;12.60;66.50;;;;;;5133014;28;20554;-71
2022/03/22 08:38:03;;;;;;;2.95;1.70;;;12.70;66.50;;;;;;5132809;28;20045;-72
2022/03/22 08:40:30;;;;;;;3.30;1.70;;;12.80;66.40;;;;;;5114638;28;20039;-72
2022/03/22 08:42:57;;;;;;;2.70;1.65;;;12.90;66.30;;;;;;5133504;28;20043;-72
2022/03/22 08:45:26;;;;;;;3.50;2.10;;;13.00;66.30;;;;;;5114221;28;20436;-72
2022/03/22 08:47:53;;;;;;;4.38;2.10;;;12.90;66.10;;;;;;5133455;27;20096;-72
2022/03/22 08:50:20;;;;;;;3.03;1.88;;;13.20;66.20;;;;;;5136568;28;20039;-72
2022/03/22 08:52:48;;;;;;;3.50;1.98;;;13.20;66.00;;;;;;5136731;28;20402;-70
2022/03/22 08:55:16;;;;;;;3.63;2.03;;;13.30;66.60;;;;;;5117275;28;20100;-69
2022/03/22 08:57:44;;;;;;;4.40;2.50;;;13.40;65.90;;;;;;5119027;28;20051;-70
2022/03/22 09:00:11;;;;;;;2.70;1.80;;;13.50;65.80;;;;;;5118474;28;20039;-69
2022/03/22 09:02:39;;;;;;;3.72;2.05;;;13.60;65.60;;;;;;5136577;28;20501;-70
2022/03/22 09:07:52;;;;;;;3.63;1.75;;;13.80;65.30;;;;;;5136430;28;20043;-70
2022/03/22 09:10:20;;;;;;;3.58;2.13;;;14.00;65.30;;;;;;5136362;28;20513;-70
2022/03/22 09:12:49;;;;;;;2.90;1.70;;;14.10;65.00;;;;;;5136443;28;20051;-70
2022/03/22 09:15:16;;;;;;;3.80;2.22;;;14.30;65.00;;;;;;5117774;28;20439;-72
2022/03/22 09:17:42;;;;;;;3.47;2.05;;;14.30;64.80;;;;;;5136758;28;20047;-72
2022/03/22 09:20:12;;;;;;;2.88;1.90;;;14.40;65.30;;;;;;5136578;28;20050;-72
2022/03/22 09:22:38;;;;;;;3.22;2.03;;;14.40;64.40;;;;;;5100405;28;20040;-72
2022/03/22 09:25:04;;;;;;;2.97;1.95;;;14.60;64.40;;;;;;5136310;28;20038;-72
2022/03/22 09:27:30;;;;;;;2.92;1.77;;;14.70;64.30;;;;;;5136238;28;20089;-72
2022/03/22 09:29:57;;;;;;;3.38;2.00;;;14.80;64.20;;;;;;5136323;28;20063;-74
2022/03/22 09:32:23;;;;;;;4.40;2.13;;;15.00;64.10;;;;;;5101834;28;20062;-73
2022/03/22 09:34:49;;;;;;;4.38;2.17;;;15.10;64.00;;;;;;5136693;28;20506;-72
2022/03/22 09:37:16;;;;;;;4.07;2.28;;;15.10;63.90;;;;;;5115037;28;20134;-72
2022/03/22 09:39:43;;;;;;;3.22;2.08;;;15.20;63.80;;;;;;5116953;28;20039;-73
2022/03/22 09:42:09;;;;;;;4.00;2.30;;;15.30;63.70;;;;;;5117580;28;20050;-73
2022/03/22 09:44:35;;;;;;;2.88;1.60;;;15.30;63.60;;;;;;5117469;28;20031;-72
2022/03/22 09:47:03;;;;;;;3.55;2.00;;;15.40;63.40;;;;;;5115547;28;20040;-71
2022/03/22 09:49:29;;;;;;;3.30;1.80;;;15.50;63.40;;;;;;5135869;28;20047;-72
2022/03/22 09:51:55;;;;;;;3.83;2.13;;;15.50;63.40;;;;;;5135741;28;20043;-72
2022/03/22 09:54:23;;;;;;;2.83;1.98;;;15.60;63.40;;;;;;5136183;28;20039;-72
2022/03/22 09:56:49;;;;;;;2.67;1.80;;;15.60;63.20;;;;;;5135723;28;20501;-72
2022/03/22 09:59:17;;;;;;;3.83;2.35;;;15.70;63.20;;;;;;5135545;27;20035;-72
2022/03/22 10:01:44;;;;;;;3.15;1.95;;;15.80;63.10;;;;;;5135682;28;20122;-72
2022/03/22 10:04:13;;;;;;;2.85;1.75;;;15.80;63.10;;;;;;5100300;28;20082;-72
2022/03/22 10:06:54;;;;;;;2.42;1.63;;;16.00;63.10;;;;;;5101221;28;20050;-71
2022/03/22 10:09:30;;;;;;;4.45;2.40;;;16.00;62.90;;;;;;5101778;28;20050;-72
2022/03/22 10:11:57;;;;;;;4.13;2.42;;;16.10;62.70;;;;;;5135498;28;20486;-73
2022/03/22 10:14:41;;;;;;;2.97;1.80;;;16.20;62.60;;;;;;5098872;28;20086;-73
2022/03/22 10:17:12;;;;;;;4.45;2.85;;;16.30;62.50;;;;;;5135120;28;20039;-73
2022/03/22 10:19:44;;;;;;;5.05;2.80;;;16.30;62.40;;;;;;5100054;28;20036;-72
2022/03/22 10:22:10;;;;;;;3.47;2.20;;;16.40;62.40;;;;;;5135416;28;20039;-73
2022/03/22 10:24:45;;;;;;;4.13;2.25;;;16.40;62.30;;;;;;5135248;28;20027;-73
2022/03/22 10:27:26;;;;;;;4.85;2.70;;;16.50;62.10;;;;;;5135410;28;20043;-73
2022/03/22 10:29:52;;;;;;;2.97;1.70;;;16.60;62.10;;;;;;5135939;28;20043;-72
2022/03/22 10:32:28;;;;;;;3.58;2.17;;;16.70;61.90;;;;;;5135406;28;20280;-70
2022/03/22 10:34:53;;;;;;;3.60;2.30;;;16.70;61.70;;;;;;5099563;28;20122;-70
2022/03/22 10:37:27;;;;;;;4.20;2.40;;;16.80;61.70;;;;;;5082678;28;20188;-71
2022/03/22 10:39:52;;;;;;;3.67;2.10;;;16.90;61.60;;;;;;5114924;28;20040;-71
2022/03/22 10:42:23;;;;;;;2.95;1.90;;;16.90;61.50;;;;;;5135042;28;20041;-71
2022/03/22 10:44:50;;;;;;;3.28;1.88;;;17.00;61.40;;;;;;5135477;28;20122;-72
2022/03/22 10:47:25;;;;;;;2.65;1.80;;;17.00;61.30;;;;;;5134725;28;20494;-73
2022/03/22 10:50:06;;;;;;;2.75;1.80;;;17.10;61.10;;;;;;5116842;28;20039;-72
2022/03/22 10:52:33;;;;;;;2.83;1.75;;;17.20;61.00;;;;;;5135335;28;20050;-72
2022/03/22 10:55:00;;;;;;;3.88;1.90;;;17.30;61.00;;;;;;5116882;28;20035;-72
2022/03/22 10:57:32;;;;;;;3.03;1.73;;;17.40;60.80;;;;;;5099636;28;20050;-72
2022/03/22 11:00:04;;;;;;;4.70;2.55;;;17.40;60.60;;;;;;5117333;28;20073;-72
2022/03/22 11:02:34;;;;;;;5.38;2.38;;;17.50;60.40;;;;;;5134772;28;20126;-71
2022/03/22 11:05:03;;;;;;;3.65;2.03;;;17.60;60.20;;;;;;5134771;28;20042;-72
2022/03/22 11:07:34;;;;;;;3.33;2.00;;;17.60;60.00;;;;;;5134556;28;20062;-72
2022/03/22 11:10:00;;;;;;;4.40;2.33;;;17.70;59.90;;;;;;5114336;28;20050;-71
2022/03/22 11:12:27;;;;;;;4.30;2.33;;;17.80;59.70;;;;;;5133806;28;20055;-73
2022/03/22 11:14:55;;;;;;;3.97;2.22;;;17.80;59.40;;;;;;5098842;28;20035;-71
2022/03/22 11:17:22;;;;;;;4.28;2.53;;;17.80;59.40;;;;;;5115928;28;20091;-72
2022/03/22 11:19:49;;;;;;;3.25;1.83;;;17.90;59.40;;;;;;5134314;28;20077;-72
2022/03/22 11:22:17;;;;;;;3.30;1.90;;;18.00;59.30;;;;;;5114673;28;20046;-72
2022/03/22 11:24:44;;;;;;;5.30;2.38;;;18.10;59.10;;;;;;5134036;28;20039;-72
2022/03/22 11:27:09;;;;;;;4.10;2.30;;;18.20;59.00;;;;;;5115574;28;20054;-73
2022/03/22 11:29:39;;;;;;;4.22;2.00;;;18.30;58.90;;;;;;5115633;28;20039;-71
2022/03/22 11:34:45;;;;;;;2.97;1.77;;;18.50;58.60;;;;;;5133881;28;20075;-72
2022/03/22 11:37:11;;;;;;;5.28;2.40;;;18.60;58.50;;;;;;5134267;28;20050;-71
2022/03/22 11:42:19;;;;;;;2.55;1.50;;;18.70;58.30;;;;;;5133920;28;20070;-71
2022/03/22 11:45:03;;;;;;;3.22;1.85;;;18.80;58.20;;;;;;5116493;28;20050;-71
2022/03/22 11:47:39;;;;;;;4.65;2.35;;;18.70;58.10;;;;;;5133712;28;20036;-72
2022/03/22 11:50:07;;;;;;;2.83;1.80;;;18.80;58.00;;;;;;5116347;28;20049;-70
2022/03/22 11:52:39;;;;;;;3.90;2.00;;;18.80;57.90;;;;;;5134314;28;20043;-70
2022/03/22 11:55:08;;;;;;;3.25;1.98;;;18.90;57.90;;;;;;5133688;28;20035;-71
2022/03/22 11:57:47;;;;;;;2.55;1.67;;;19.00;57.80;;;;;;5096909;28;20041;-71
2022/03/22 12:00:16;;;;;;;4.03;2.10;;;18.90;57.70;;;;;;5133588;28;20031;-71
2022/03/22 12:02:51;;;;;;;2.70;1.80;;;19.10;57.60;;;;;;5115010;28;20050;-73
2022/03/22 12:05:19;;;;;;;3.78;2.00;;;19.10;57.60;;;;;;5115217;28;20050;-73
2022/03/22 12:07:46;;;;;;;3.00;1.90;;;19.20;57.50;;;;;;5098528;28;20042;-73
2022/03/22 12:10:15;;;;;;;2.85;1.70;;;19.20;57.30;;;;;;5081829;28;20524;-73
2022/03/22 12:12:48;;;;;;;5.72;2.65;;;19.20;57.20;;;;;;5115369;28;20055;-72
2022/03/22 12:15:16;;;;;;;3.50;1.92;;;19.20;57.10;;;;;;5099397;28;20106;-73
2022/03/22 12:17:43;;;;;;;4.85;2.20;;;19.30;57.10;;;;;;5097714;28;20043;-72
2022/03/22 12:20:11;;;;;;;5.03;2.38;;;19.40;56.90;;;;;;5133530;28;20031;-73
2022/03/22 12:22:41;;;;;;;2.97;1.90;;;19.60;56.80;;;;;;5113943;28;20047;-71
2022/03/22 12:25:09;;;;;;;2.78;1.73;;;19.50;56.70;;;;;;5133198;28;20047;-70
2022/03/22 12:27:35;;;;;;;3.22;1.95;;;19.60;56.60;;;;;;5113779;28;20063;-71
2022/03/22 12:30:01;;;;;;;3.35;2.13;;;19.70;56.50;;;;;;5132741;28;20431;-71
2022/03/22 12:32:27;;;;;;;3.00;1.70;;;19.80;56.20;;;;;;5116137;28;20042;-74
2022/03/22 12:34:54;;;;;;;4.50;2.25;;;19.90;56.10;;;;;;5133070;28;20054;-71
2022/03/22 12:37:20;;;;;;;3.15;1.90;;;20.10;55.90;;;;;;5133325;28;20504;-70
2022/03/22 12:39:47;;;;;;;5.90;2.67;;;20.10;55.60;;;;;;5114356;28;20079;-72
2022/03/22 12:42:14;;;;;;;2.92;1.77;;;20.20;55.60;;;;;;5133188;28;20039;-72
2022/03/22 12:44:41;;;;;;;4.03;2.22;;;20.20;55.50;;;;;;5114951;28;20035;-72
2022/03/22 12:47:08;;;;;;;4.00;2.00;;;20.30;55.30;;;;;;5132975;28;20524;-72
2022/03/22 12:49:35;;;;;;;3.17;1.90;;;20.20;55.20;;;;;;5114366;28;20478;-71
2022/03/22 12:52:02;;;;;;;3.50;2.05;;;20.30;55.20;;;;;;5133349;28;20129;-72
2022/03/22 12:54:33;;;;;;;4.00;2.20;;;20.30;55.20;;;;;;5133450;28;20043;-71
2022/03/22 12:57:01;;;;;;;;;;;20.30;55.20;;;;;;5114936;28;20402;-71
2022/03/22 12:59:28;;;;;;;3.30;1.85;;;20.40;55.30;;;;;;5113402;28;19911;-70
2022/03/22 13:01:57;;;;;;;4.03;2.17;;;20.40;55.10;;;;;;5113049;28;20032;-72
2022/03/22 13:04:26;;;;;;;4.50;2.25;;;20.50;55.00;;;;;;5129352;28;20501;-72
2022/03/22 13:06:59;;;;;;;3.05;1.88;;;20.50;54.80;;;;;;5115244;28;20050;-72
2022/03/22 13:12:13;;;;;;;2.00;1.50;;;20.50;54.60;;;;;;5129391;28;20055;-72
2022/03/22 13:17:21;;;;;;;2.97;1.70;;;20.60;54.50;;;;;;5132651;28;20062;-72
2022/03/22 13:19:47;;;;;;;3.80;2.20;;;20.70;54.40;;;;;;5132462;28;20485;-72
2022/03/22 13:22:18;;;;;;;4.85;2.05;;;20.70;54.10;;;;;;5095958;28;20047;-70
2022/03/22 13:24:44;;;;;;;4.20;2.10;;;20.60;54.10;;;;;;5132775;28;20039;-69
2022/03/22 13:27:11;;;;;;;3.35;1.92;;;20.60;54.10;;;;;;5111975;28;20055;-70
2022/03/22 13:29:40;;;;;;;2.83;1.60;;;20.70;54.20;;;;;;5097582;28;20047;-70
2022/03/22 13:32:09;;;;;;;3.50;2.13;;;20.80;54.10;;;;;;5114165;28;20043;-70